Time,TemperatureF,DewpointF,PressureIn,WindDirection,WindDirectionDegrees,WindSpeedMPH,WindSpeedGustMPH,Humidity,HourlyPrecipIn,Conditions,Clouds,dailyrainin,SoftwareType,DateUTC
2013-02-11 00:01:00,40.0,23.0,30.03,NNW,348,4.0,7.0,51,0.00,,,0.00,,2013-02-11 08:01:00,
2013-02-11 00:11:00,40.0,23.0,30.03,NNW,348,4.0,7.0,51,0.00,,,0.00,,2013-02-11 08:11:00,
2013-02-11 00:21:00,40.0,23.0,30.03,NNW,348,4.0,7.0,51,0.00,,,0.00,,2013-02-11 08:21:00,
2013-02-11 00:31:00,40.0,23.0,30.03,NNW,348,4.0,7.0,51,0.00,,,0.00,,2013-02-11 08:31:00,
2013-02-11 03:32:00,33.0,21.0,30.04,NNW,329,4.0,6.0,62,0.00,,,0.00,,2013-02-11 11:32:00,
2013-02-11 03:42:00,33.0,21.0,30.04,NNW,329,4.0,6.0,62,0.00,,,0.00,,2013-02-11 11:42:00,
2013-02-11 03:52:00,33.0,21.0,30.04,NNW,329,4.0,6.0,62,0.00,,,0.00,,2013-02-11 11:52:00,
2013-02-11 04:02:00,33.0,21.0,30.04,NNW,329,4.0,6.0,62,0.00,,,0.00,,2013-02-11 12:02:00,
2013-02-11 04:12:00,33.0,21.0,30.04,NNW,329,4.0,6.0,62,0.00,,,0.00,,2013-02-11 12:12:00,
2013-02-11 05:52:00,35.0,17.0,30.06,NNW,344,3.0,5.0,48,0.00,,,0.00,,2013-02-11 13:52:00,
2013-02-11 06:01:00,36.0,18.0,30.07,NNE,12,5.0,6.0,47,0.00,,,0.00,,2013-02-11 14:01:00,
2013-02-11 06:21:00,38.0,17.0,30.07,NNE,31,6.0,8.0,42,0.00,,,0.00,,2013-02-11 14:21:00,
2013-02-11 06:41:00,38.0,16.0,30.08,NE,38,6.0,8.0,40,0.00,,,0.00,,2013-02-11 14:41:00,
2013-02-11 06:52:00,38.0,16.0,30.08,NE,38,6.0,8.0,40,0.00,,,0.00,,2013-02-11 14:52:00,
2013-02-11 07:01:00,38.0,16.0,30.08,NE,38,6.0,8.0,40,0.00,,,0.00,,2013-02-11 15:01:00,
2013-02-11 07:11:00,36.0,17.0,30.09,North,0,0.0,6.0,45,0.00,,,0.00,,2013-02-11 15:11:00,
2013-02-11 07:22:00,36.0,17.0,30.09,North,0,0.0,6.0,45,0.00,,,0.00,,2013-02-11 15:22:00,
2013-02-11 07:31:00,37.0,17.0,30.10,North,0,0.0,0.0,43,0.00,,,0.00,,2013-02-11 15:31:00,
2013-02-11 07:42:00,37.0,17.0,30.10,North,0,0.0,0.0,43,0.00,,,0.00,,2013-02-11 15:42:00,
2013-02-11 07:51:00,37.0,17.0,30.10,North,0,0.0,0.0,43,0.00,,,0.00,,2013-02-11 15:51:00,
2013-02-11 08:01:00,37.0,17.0,30.10,North,0,0.0,0.0,43,0.00,,,0.00,,2013-02-11 16:01:00,
2013-02-11 08:11:00,37.0,17.0,30.10,North,0,0.0,0.0,43,0.00,,,0.00,,2013-02-11 16:11:00,
2013-02-11 08:32:00,39.0,16.0,30.12,North,0,0.0,3.0,39,0.00,,,0.00,,2013-02-11 16:32:00,
2013-02-11 08:42:00,42.0,20.0,30.13,North,0,0.0,2.0,41,0.00,,,0.00,,2013-02-11 16:42:00,
2013-02-11 08:52:00,42.0,20.0,30.13,North,0,0.0,2.0,41,0.00,,,0.00,,2013-02-11 16:52:00,
2013-02-11 09:01:00,42.0,20.0,30.13,North,0,0.0,2.0,41,0.00,,,0.00,,2013-02-11 17:01:00,
2013-02-11 09:11:00,42.0,20.0,30.13,North,0,0.0,2.0,41,0.00,,,0.00,,2013-02-11 17:11:00,
2013-02-11 09:21:00,42.0,20.0,30.13,North,0,0.0,2.0,41,0.00,,,0.00,,2013-02-11 17:21:00,
2013-02-11 09:53:00,45.0,18.0,30.15,ESE,120,3.0,7.0,34,0.00,,,0.00,,2013-02-11 17:53:00,
2013-02-11 10:01:00,45.0,18.0,30.15,ESE,120,3.0,7.0,34,0.00,,,0.00,,2013-02-11 18:01:00,
2013-02-11 10:11:00,45.0,18.0,30.15,ESE,120,3.0,7.0,34,0.00,,,0.00,,2013-02-11 18:11:00,
2013-02-11 10:21:00,45.0,18.0,30.15,ESE,120,3.0,7.0,34,0.00,,,0.00,,2013-02-11 18:21:00,
2013-02-11 10:31:00,46.0,16.0,30.16,East,86,8.0,15.0,30,0.00,,,0.00,,2013-02-11 18:31:00,
2013-02-11 10:42:00,46.0,16.0,30.16,East,86,8.0,15.0,30,0.00,,,0.00,,2013-02-11 18:42:00,
2013-02-11 10:53:00,46.0,16.0,30.16,East,86,8.0,15.0,30,0.00,,,0.00,,2013-02-11 18:53:00,
2013-02-11 11:01:00,47.0,15.0,30.16,North,0,0.0,16.0,27,0.06,,,0.06,,2013-02-11 19:01:00,
2013-02-11 11:11:00,50.0,23.0,30.15,North,0,0.0,6.0,35,0.11,,,0.11,,2013-02-11 19:11:00,
2013-02-11 11:21:00,50.0,23.0,30.15,North,0,0.0,6.0,35,0.11,,,0.11,,2013-02-11 19:21:00,
2013-02-11 11:31:00,48.0,14.0,30.15,ENE,68,5.0,13.0,25,0.22,,,0.22,,2013-02-11 19:31:00,
2013-02-11 11:41:00,48.0,14.0,30.15,ENE,68,5.0,13.0,25,0.22,,,0.22,,2013-02-11 19:41:00,
2013-02-11 11:51:00,48.0,12.0,30.15,NE,47,14.0,21.0,23,0.22,,,0.22,,2013-02-11 19:51:00,
2013-02-11 12:01:00,48.0,12.0,30.14,East,85,8.0,22.0,23,0.19,,,0.22,,2013-02-11 20:01:00,
2013-02-11 12:11:00,49.0,11.0,30.14,NE,56,5.0,18.0,21,0.11,,,0.22,,2013-02-11 20:11:00,
2013-02-11 12:21:00,49.0,11.0,30.14,NE,56,5.0,18.0,21,0.11,,,0.22,,2013-02-11 20:21:00,
2013-02-11 12:31:00,50.0,12.0,30.13,ENE,65,14.0,26.0,21,0.00,,,0.22,,2013-02-11 20:31:00,
2013-02-11 12:41:00,50.0,12.0,30.12,ENE,72,5.0,17.0,21,0.00,,,0.22,,2013-02-11 20:41:00,
2013-02-11 12:52:00,50.0,12.0,30.12,ENE,72,5.0,17.0,21,0.00,,,0.22,,2013-02-11 20:52:00,
2013-02-11 13:01:00,50.0,11.0,30.12,ENE,73,7.0,15.0,20,0.00,,,0.22,,2013-02-11 21:01:00,
2013-02-11 13:11:00,51.0,11.0,30.11,ESE,112,5.0,11.0,20,0.00,,,0.22,,2013-02-11 21:11:00,
2013-02-11 13:21:00,51.0,11.0,30.11,ESE,112,5.0,11.0,20,0.00,,,0.22,,2013-02-11 21:21:00,
2013-02-11 13:31:00,51.0,10.0,30.11,ENE,64,9.0,20.0,19,0.00,,,0.22,,2013-02-11 21:31:00,
2013-02-11 13:41:00,51.0,9.0,30.10,ENE,69,7.0,21.0,18,0.00,,,0.22,,2013-02-11 21:41:00,
2013-02-11 13:52:00,51.0,9.0,30.10,ENE,69,7.0,21.0,18,0.00,,,0.22,,2013-02-11 21:52:00,
2013-02-11 14:01:00,51.0,9.0,30.10,ESE,105,6.0,17.0,18,0.00,,,0.22,,2013-02-11 22:01:00,
2013-02-11 14:11:00,51.0,8.0,30.10,East,80,7.0,17.0,17,0.00,,,0.22,,2013-02-11 22:11:00,
2013-02-11 14:21:00,51.0,8.0,30.10,East,80,7.0,17.0,17,0.00,,,0.22,,2013-02-11 22:21:00,
2013-02-11 14:31:00,52.0,7.0,30.10,NNE,23,4.0,11.0,16,0.00,,,0.22,,2013-02-11 22:31:00,
2013-02-11 14:41:00,52.0,7.0,30.10,NNE,23,4.0,11.0,16,0.00,,,0.22,,2013-02-11 22:41:00,
2013-02-11 14:52:00,53.0,8.0,30.10,East,84,9.0,17.0,16,0.00,,,0.22,,2013-02-11 22:52:00,
2013-02-11 15:01:00,52.0,6.0,30.09,East,98,6.0,15.0,15,0.00,,,0.22,,2013-02-11 23:01:00,
2013-02-11 15:11:00,52.0,6.0,30.09,East,98,6.0,15.0,15,0.00,,,0.22,,2013-02-11 23:11:00,
2013-02-11 15:21:00,52.0,6.0,30.09,ENE,77,4.0,14.0,15,0.00,,,0.22,,2013-02-11 23:21:00,
2013-02-11 15:31:00,53.0,7.0,30.09,East,98,5.0,15.0,15,0.00,,,0.22,,2013-02-11 23:31:00,
2013-02-11 15:41:00,53.0,7.0,30.09,East,98,5.0,15.0,15,0.00,,,0.22,,2013-02-11 23:41:00,
2013-02-11 15:52:00,53.0,7.0,30.10,ESE,114,5.0,12.0,15,0.00,,,0.22,,2013-02-11 23:52:00,
2013-02-11 16:01:00,52.0,6.0,30.11,NE,34,3.0,12.0,15,0.00,,,0.22,,2013-02-12 00:01:00,
2013-02-11 16:11:00,52.0,6.0,30.11,NE,34,3.0,12.0,15,0.00,,,0.22,,2013-02-12 00:11:00,
2013-02-11 16:21:00,53.0,5.0,30.10,East,90,7.0,12.0,14,0.00,,,0.22,,2013-02-12 00:21:00,
2013-02-11 16:31:00,52.0,6.0,30.11,SE,133,7.0,14.0,15,0.00,,,0.22,,2013-02-12 00:31:00,
2013-02-11 16:41:00,52.0,6.0,30.11,SE,133,7.0,14.0,15,0.00,,,0.22,,2013-02-12 00:41:00,
2013-02-11 16:52:00,52.0,6.0,30.11,ESE,123,9.0,15.0,15,0.00,,,0.22,,2013-02-12 00:52:00,
2013-02-11 17:01:00,52.0,6.0,30.11,East,90,4.0,12.0,15,0.00,,,0.22,,2013-02-12 01:01:00,
2013-02-11 17:11:00,52.0,6.0,30.11,East,90,4.0,12.0,15,0.00,,,0.22,,2013-02-12 01:11:00,
2013-02-11 17:21:00,51.0,5.0,30.12,SE,133,5.0,11.0,15,0.00,,,0.22,,2013-02-12 01:21:00,
2013-02-11 17:31:00,50.0,4.0,30.12,SE,139,6.0,10.0,15,0.00,,,0.22,,2013-02-12 01:31:00,
2013-02-11 17:41:00,50.0,6.0,30.13,SE,139,6.0,9.0,16,0.00,,,0.22,,2013-02-12 01:41:00,
2013-02-11 17:52:00,50.0,6.0,30.13,SE,139,6.0,9.0,16,0.00,,,0.22,,2013-02-12 01:52:00,
2013-02-11 18:01:00,49.0,5.0,30.13,SE,144,3.0,7.0,16,0.00,,,0.22,,2013-02-12 02:01:00,
2013-02-11 18:11:00,48.0,4.0,30.13,SE,134,3.0,5.0,16,0.00,,,0.22,,2013-02-12 02:11:00,
2013-02-11 18:21:00,48.0,4.0,30.13,SE,134,3.0,5.0,16,0.00,,,0.22,,2013-02-12 02:21:00,
2013-02-11 18:31:00,48.0,4.0,30.14,SE,126,3.0,7.0,16,0.00,,,0.22,,2013-02-12 02:31:00,
2013-02-11 18:41:00,48.0,4.0,30.14,SE,126,3.0,7.0,16,0.00,,,0.22,,2013-02-12 02:41:00,
2013-02-11 18:52:00,47.0,4.0,30.14,North,0,0.0,4.0,17,0.00,,,0.22,,2013-02-12 02:52:00,
2013-02-11 19:01:00,46.0,4.0,30.15,NW,313,3.0,6.0,17,0.00,,,0.22,,2013-02-12 03:01:00,
2013-02-11 19:11:00,40.0,3.0,30.15,NW,312,4.0,7.0,21,0.00,,,0.22,,2013-02-12 03:11:00,
2013-02-11 19:21:00,40.0,3.0,30.15,NW,312,4.0,7.0,21,0.00,,,0.22,,2013-02-12 03:21:00,
2013-02-11 19:31:00,40.0,4.0,30.16,NW,317,5.0,8.0,22,0.00,,,0.22,,2013-02-12 03:31:00,
2013-02-11 19:41:00,40.0,7.0,30.16,NW,322,5.0,9.0,25,0.00,,,0.22,,2013-02-12 03:41:00,
2013-02-11 19:51:00,40.0,7.0,30.16,NW,322,5.0,9.0,25,0.00,,,0.22,,2013-02-12 03:51:00,
2013-02-11 20:01:00,39.0,7.0,30.17,NW,325,3.0,6.0,26,0.00,,,0.22,,2013-02-12 04:01:00,
2013-02-11 20:11:00,39.0,7.0,30.17,NW,325,3.0,6.0,26,0.00,,,0.22,,2013-02-12 04:11:00,
2013-02-11 20:21:00,40.0,8.0,30.18,NE,51,2.0,4.0,26,0.00,,,0.22,,2013-02-12 04:21:00,
2013-02-11 20:31:00,42.0,8.0,30.19,NE,42,2.0,4.0,24,0.00,,,0.22,,2013-02-12 04:31:00,
2013-02-11 20:41:00,42.0,8.0,30.19,NE,42,2.0,4.0,24,0.00,,,0.22,,2013-02-12 04:41:00,
2013-02-11 20:52:00,43.0,9.0,30.19,North,10,2.0,3.0,24,0.00,,,0.22,,2013-02-12 04:52:00,
2013-02-11 21:01:00,40.0,10.0,30.19,NW,323,4.0,5.0,29,0.00,,,0.22,,2013-02-12 05:01:00,
2013-02-11 21:11:00,37.0,10.0,30.20,NW,320,5.0,7.0,32,0.00,,,0.22,,2013-02-12 05:11:00,
2013-02-11 21:21:00,37.0,10.0,30.20,NW,320,5.0,7.0,32,0.00,,,0.22,,2013-02-12 05:21:00,
2013-02-11 21:31:00,37.0,11.0,30.20,NNW,332,5.0,7.0,33,0.00,,,0.22,,2013-02-12 05:31:00,
2013-02-11 21:41:00,37.0,11.0,30.20,NNW,332,5.0,7.0,33,0.00,,,0.22,,2013-02-12 05:41:00,
2013-02-11 21:52:00,37.0,11.0,30.21,NNW,332,4.0,6.0,33,0.00,,,0.22,,2013-02-12 05:52:00,
2013-02-11 22:01:00,36.0,10.0,30.21,NW,322,5.0,7.0,34,0.00,,,0.22,,2013-02-12 06:01:00,
2013-02-11 22:11:00,35.0,8.0,30.21,NW,318,4.0,8.0,32,0.00,,,0.22,,2013-02-12 06:11:00,
2013-02-11 22:21:00,35.0,8.0,30.21,NW,318,4.0,8.0,32,0.00,,,0.22,,2013-02-12 06:21:00,
2013-02-11 22:31:00,35.0,8.0,30.22,NW,315,4.0,6.0,32,0.00,,,0.22,,2013-02-12 06:31:00,
2013-02-11 22:42:00,35.0,9.0,30.22,NW,321,6.0,8.0,34,0.00,,,0.22,,2013-02-12 06:42:00,
2013-02-11 22:52:00,35.0,9.0,30.22,NW,321,6.0,8.0,34,0.00,,,0.22,,2013-02-12 06:52:00,
2013-02-11 23:01:00,35.0,9.0,30.22,NW,310,6.0,8.0,34,0.00,,,0.22,,2013-02-12 07:01:00,
2013-02-11 23:11:00,35.0,9.0,30.22,NW,310,6.0,8.0,34,0.00,,,0.22,,2013-02-12 07:11:00,
2013-02-11 23:21:00,34.0,7.0,30.22,NW,318,5.0,8.0,32,0.00,,,0.22,,2013-02-12 07:21:00,
2013-02-11 23:31:00,34.0,7.0,30.22,NW,318,6.0,8.0,32,0.00,,,0.22,,2013-02-12 07:31:00,
2013-02-11 23:41:00,34.0,7.0,30.22,NW,318,6.0,8.0,32,0.00,,,0.22,,2013-02-12 07:41:00,
2013-02-11 23:51:00,35.0,7.0,30.23,NW,322,5.0,6.0,31,0.00,,,0.22,,2013-02-12 07:51:00,